Weather at Bastia-Poretta Airport

Public forecast

Using degrees Celsius for public forecast. Weather courtesy of forecast.io.

Current aviation weather report (METAR) for Bastia-Poretta Airport

Report is more than 6 hours old.

2022/11/14 15:30 (retrieved 2 years ago)

LFKB 141530Z AUTO 12002KT 9999 FEW032 17/10 Q1020 NOSIG

Aviation forecast (TAF) for Bastia-Poretta Airport

Forecast is more than 12 hours old.

2023/02/22 21:26 (retrieved 1 year ago)

TAF LFKB 222000Z 2221/2321 24004KT 9999 FEW040 BKN100 TX15/2312Z TN08/2304Z BECMG 2222/2224 BKN018 BKN100 TEMPO 2300/2307 BKN008 PROB30 TEMPO 2300/2307 3000 BR BECMG 2310/2312 12008KT BECMG 2317/2319 15004KT